Time;durP1;ratioP1;P1;durP2;ratioP2;P2;SDS_P1;SDS_P2;PMS_P1;PMS_P2;Temp;Humidity;BMP_temperature;BMP_pressure;BME280_temperature;BME280_humidity;BME280_pressure;Samples;Min_cycle;Max_cycle;Signal;HPM_P1;HPM_P2
2021/04/09 00:02:10;;;;;;;17.17;9.90;;;;;;;;;;10302080;28;20609;-81
2021/04/09 00:07:14;;;;;;;19.37;10.20;;;;;;;;;;10296206;28;20449;-80
2021/04/09 00:12:16;;;;;;;18.10;11.67;;;;;;;;;;10292998;28;20379;-80
2021/04/09 00:17:17;;;;;;;19.50;10.80;;;;;;;;;;10301523;28;20241;-80
2021/04/09 00:22:20;;;;;;;19.87;11.87;;;;;;;;;;10295947;28;20367;-79
2021/04/09 00:27:22;;;;;;;19.43;11.30;;;;;;;;;;10295630;28;20214;-80
2021/04/09 00:32:24;;;;;;;20.00;10.87;;;;;;;;;;10294646;28;20225;-80
2021/04/09 00:37:27;;;;;;;20.03;10.67;;;;;;;;;;10295739;28;20237;-80
2021/04/09 00:42:28;;;;;;;16.57;10.50;;;;;;;;;;10299346;28;20220;-80
2021/04/09 00:47:30;;;;;;;18.80;11.60;;;;;;;;;;10306857;28;20217;-80
2021/04/09 00:52:35;;;;;;;19.47;11.37;;;;;;;;;;10295538;28;20308;-80
2021/04/09 00:57:37;;;;;;;19.43;11.43;;;;;;;;;;10294406;28;20324;-80
2021/04/09 01:02:39;;;;;;;20.60;11.43;;;;;;;;;;10295247;28;20240;-80
2021/04/09 01:07:42;;;;;;;20.20;11.53;;;;;;;;;;10293068;28;20616;-81
2021/04/09 01:12:45;;;;;;;17.63;11.10;;;;;;;;;;10295736;28;20225;-79
2021/04/09 01:17:48;;;;;;;16.03;11.17;;;;;;;;;;10299045;28;20721;-80
2021/04/09 01:22:53;;;;;;;18.70;12.00;;;;;;;;;;10294680;28;20233;-80
2021/04/09 01:27:58;;;;;;;18.70;11.63;;;;;;;;;;10292106;28;20210;-81
2021/04/09 01:33:01;;;;;;;22.33;11.33;;;;;;;;;;10294407;28;20226;-80
2021/04/09 01:38:05;;;;;;;18.00;11.17;;;;;;;;;;10290532;28;20241;-80
2021/04/09 01:43:09;;;;;;;17.33;10.83;;;;;;;;;;10292991;28;20826;-80
2021/04/09 01:48:12;;;;;;;17.27;10.50;;;;;;;;;;10296598;28;20350;-81
2021/04/09 01:53:14;;;;;;;18.70;11.73;;;;;;;;;;10294056;28;20743;-80
2021/04/09 01:58:17;;;;;;;19.03;11.00;;;;;;;;;;10288938;28;20817;-80
2021/04/09 02:03:22;;;;;;;21.20;11.53;;;;;;;;;;10293367;28;20241;-80
2021/04/09 02:08:24;;;;;;;18.50;11.37;;;;;;;;;;10296544;28;20589;-82
2021/04/09 02:13:27;;;;;;;19.40;10.73;;;;;;;;;;10298364;28;20221;-82
2021/04/09 02:18:30;;;;;;;18.97;11.20;;;;;;;;;;10293930;28;20237;-81
2021/04/09 02:23:32;;;;;;;18.33;11.17;;;;;;;;;;10287071;28;20291;-81
2021/04/09 02:28:34;;;;;;;16.57;10.30;;;;;;;;;;10288203;28;20213;-80
2021/04/09 02:33:38;;;;;;;18.07;10.63;;;;;;;;;;10291752;28;20217;-81
2021/04/09 02:38:42;;;;;;;15.57;10.30;;;;;;;;;;10292162;28;20753;-81
2021/04/09 02:43:44;;;;;;;15.60;9.60;;;;;;;;;;10288088;28;20648;-81
2021/04/09 02:48:51;;;;;;;17.60;10.40;;;;;;;;;;10291515;28;20232;-80
2021/04/09 02:53:54;;;;;;;16.20;10.47;;;;;;;;;;10290752;28;20326;-82
2021/04/09 02:58:57;;;;;;;17.80;10.37;;;;;;;;;;10291433;28;20321;-81
2021/04/09 03:04:01;;;;;;;18.43;10.43;;;;;;;;;;10286386;28;20533;-82
2021/04/09 03:09:03;;;;;;;16.90;10.70;;;;;;;;;;10292849;28;20210;-82
2021/04/09 03:14:05;;;;;;;16.10;10.40;;;;;;;;;;10291734;28;20602;-81
2021/04/09 03:19:08;;;;;;;13.33;9.73;;;;;;;;;;10292167;28;20260;-80
2021/04/09 03:24:10;;;;;;;17.90;9.63;;;;;;;;;;10295978;28;20210;-80
2021/04/09 03:29:11;;;;;;;15.50;9.73;;;;;;;;;;10286642;28;20221;-80
2021/04/09 03:34:14;;;;;;;16.53;9.67;;;;;;;;;;10293766;28;20232;-81
2021/04/09 03:39:16;;;;;;;16.80;9.30;;;;;;;;;;10296350;28;20264;-82
2021/04/09 03:44:18;;;;;;;16.33;9.67;;;;;;;;;;10286561;28;20218;-82
2021/04/09 03:49:21;;;;;;;14.77;8.80;;;;;;;;;;10287315;28;20355;-82
2021/04/09 03:54:23;;;;;;;16.20;9.00;;;;;;;;;;10290382;28;20221;-81
2021/04/09 03:59:25;;;;;;;13.43;9.23;;;;;;;;;;10289689;28;20233;-82
2021/04/09 04:04:27;;;;;;;14.80;9.00;;;;;;;;;;10291755;28;20651;-81
2021/04/09 04:09:29;;;;;;;14.10;8.80;;;;;;;;;;10290390;28;20729;-81
2021/04/09 04:14:32;;;;;;;16.03;9.30;;;;;;;;;;10283423;28;20671;-81
2021/04/09 04:19:35;;;;;;;14.40;8.73;;;;;;;;;;10288317;28;20434;-80
2021/04/09 04:24:37;;;;;;;16.73;9.00;;;;;;;;;;10289635;28;20730;-80
2021/04/09 04:29:40;;;;;;;14.53;8.30;;;;;;;;;;10288275;28;20224;-82
2021/04/09 04:34:42;;;;;;;14.63;8.87;;;;;;;;;;10285054;28;20213;-80
2021/04/09 04:39:44;;;;;;;13.27;8.27;;;;;;;;;;10284521;28;20237;-79
2021/04/09 04:44:46;;;;;;;17.00;9.10;;;;;;;;;;10287728;28;20584;-80
2021/04/09 04:49:48;;;;;;;15.90;8.43;;;;;;;;;;10296178;28;20232;-79
2021/04/09 04:54:51;;;;;;;16.97;9.37;;;;;;;;;;10290551;28;20220;-80
2021/04/09 04:59:52;;;;;;;14.40;9.03;;;;;;;;;;10294323;28;20249;-80
2021/04/09 05:04:55;;;;;;;14.80;9.20;;;;;;;;;;10293708;28;20244;-81
2021/04/09 05:09:58;;;;;;;15.73;8.97;;;;;;;;;;10296235;28;20236;-80
2021/04/09 05:15:00;;;;;;;15.60;8.60;;;;;;;;;;10289814;28;20244;-79
2021/04/09 05:20:03;;;;;;;15.27;9.23;;;;;;;;;;10310958;28;20241;-80
2021/04/09 05:25:05;;;;;;;17.20;8.97;;;;;;;;;;10294389;28;20670;-82
2021/04/09 05:30:08;;;;;;;18.23;9.10;;;;;;;;;;10294514;28;20778;-84
2021/04/09 05:35:12;;;;;;;16.13;8.70;;;;;;;;;;10289593;28;20707;-82
2021/04/09 05:40:14;;;;;;;14.80;8.80;;;;;;;;;;10289971;28;20241;-82
2021/04/09 05:45:16;;;;;;;16.00;8.50;;;;;;;;;;10295421;28;20217;-85
2021/04/09 05:50:31;;;;;;;17.77;8.90;;;;;;;;;;10297749;28;20217;-86
2021/04/09 05:55:33;;;;;;;14.73;8.80;;;;;;;;;;10280483;28;20631;-85
2021/04/09 06:00:35;;;;;;;15.03;8.17;;;;;;;;;;10288349;28;20247;-84
2021/04/09 06:05:38;;;;;;;14.00;8.57;;;;;;;;;;10296093;28;20241;-86
2021/04/09 06:10:40;;;;;;;15.23;8.27;;;;;;;;;;10280422;28;20232;-87
2021/04/09 06:15:42;;;;;;;16.57;8.00;;;;;;;;;;10276756;28;20225;-84
2021/04/09 06:20:45;;;;;;;15.10;8.00;;;;;;;;;;10284867;28;20249;-87
2021/04/09 06:25:46;;;;;;;15.17;8.03;;;;;;;;;;10295113;28;20225;-85
2021/04/09 06:30:49;;;;;;;14.10;7.53;;;;;;;;;;10289503;28;20244;-83
2021/04/09 06:35:57;;;;;;;14.37;7.87;;;;;;;;;;10297575;28;20245;-85
2021/04/09 06:41:03;;;;;;;11.73;7.40;;;;;;;;;;10296472;28;20247;-88
2021/04/09 06:46:05;;;;;;;14.67;8.20;;;;;;;;;;10298942;28;20225;-83
2021/04/09 06:51:09;;;;;;;17.17;7.97;;;;;;;;;;10293308;28;20646;-87
2021/04/09 06:56:11;;;;;;;15.73;7.57;;;;;;;;;;10291334;28;20769;-86
2021/04/09 07:01:15;;;;;;;11.87;6.77;;;;;;;;;;10343523;22;21429;-77
2021/04/09 07:06:18;;;;;;;13.63;7.50;;;;;;;;;;10373151;28;20274;-77
2021/04/09 07:11:23;;;;;;;14.67;7.23;;;;;;;;;;10390475;28;20216;-77
2021/04/09 07:16:25;;;;;;;15.00;7.20;;;;;;;;;;10379317;28;20219;-78
2021/04/09 07:21:30;;;;;;;13.97;7.13;;;;;;;;;;10381100;28;21154;-78
2021/04/09 07:26:38;;;;;;;11.50;6.90;;;;;;;;;;10374315;28;20220;-76
2021/04/09 07:31:40;;;;;;;13.60;7.10;;;;;;;;;;10387636;28;20208;-76
2021/04/09 07:36:52;;;;;;;11.63;6.97;;;;;;;;;;10380882;28;20303;-77
2021/04/09 07:42:05;;;;;;;11.77;6.70;;;;;;;;;;10380579;28;20216;-77
2021/04/09 07:47:07;;;;;;;11.77;6.23;;;;;;;;;;10374608;28;20614;-76
2021/04/09 07:52:11;;;;;;;12.17;6.50;;;;;;;;;;10377166;28;20248;-76
2021/04/09 07:57:27;;;;;;;12.17;6.40;;;;;;;;;;10375844;28;20227;-78
2021/04/09 08:02:38;;;;;;;10.43;6.20;;;;;;;;;;10388245;28;20680;-75
2021/04/09 08:07:42;;;;;;;11.60;6.37;;;;;;;;;;10386931;28;20248;-76
2021/04/09 08:12:44;;;;;;;10.97;6.20;;;;;;;;;;10369294;28;20227;-76
2021/04/09 08:18:01;;;;;;;11.57;6.03;;;;;;;;;;10388423;28;20640;-76
2021/04/09 08:23:05;;;;;;;9.13;5.40;;;;;;;;;;10368172;28;20310;-78
2021/04/09 08:28:10;;;;;;;10.37;5.97;;;;;;;;;;10382830;28;20270;-77
2021/04/09 08:33:13;;;;;;;19.30;6.00;;;;;;;;;;10394000;28;20216;-78
2021/04/09 08:38:16;;;;;;;9.93;5.93;;;;;;;;;;10387268;28;20254;-77
2021/04/09 08:43:18;;;;;;;14.20;6.07;;;;;;;;;;10389767;28;20224;-77
2021/04/09 08:48:21;;;;;;;10.87;5.93;;;;;;;;;;10391012;28;20359;-78
2021/04/09 08:53:27;;;;;;;12.13;5.53;;;;;;;;;;10382760;28;20219;-76
2021/04/09 08:58:32;;;;;;;11.60;5.63;;;;;;;;;;10390736;28;20590;-76
2021/04/09 09:03:34;;;;;;;7.97;5.23;;;;;;;;;;10384830;28;20240;-75
2021/04/09 09:09:02;;;;;;;10.27;5.53;;;;;;;;;;10388723;28;20223;-77
2021/04/09 09:14:04;;;;;;;12.00;5.83;;;;;;;;;;10381687;28;20212;-77
2021/04/09 09:19:08;;;;;;;8.40;4.93;;;;;;;;;;10395234;28;20740;-76
2021/04/09 09:24:18;;;;;;;8.57;5.30;;;;;;;;;;10386017;28;20228;-78
2021/04/09 09:29:21;;;;;;;16.27;5.50;;;;;;;;;;10386654;28;20228;-78
2021/04/09 09:34:45;;;;;;;11.77;6.00;;;;;;;;;;10384188;28;20228;-78
2021/04/09 09:39:51;;;;;;;10.63;5.40;;;;;;;;;;10390698;28;20305;-78
2021/04/09 09:44:54;;;;;;;11.07;5.40;;;;;;;;;;10382416;28;20212;-77
2021/04/09 09:50:13;;;;;;;10.13;5.37;;;;;;;;;;10388861;28;20216;-77
2021/04/09 09:55:27;;;;;;;9.27;5.10;;;;;;;;;;10380148;28;20594;-76
2021/04/09 10:00:30;;;;;;;13.97;5.70;;;;;;;;;;10383615;28;20263;-77
2021/04/09 10:05:32;;;;;;;10.60;5.87;;;;;;;;;;10381532;28;20242;-77
2021/04/09 10:10:38;;;;;;;13.03;6.20;;;;;;;;;;10383578;28;20216;-76
2021/04/09 10:15:41;;;;;;;11.00;5.87;;;;;;;;;;10378253;28;20224;-76
2021/04/09 10:20:43;;;;;;;12.27;6.77;;;;;;;;;;10381825;28;20725;-77
2021/04/09 10:25:50;;;;;;;8.90;5.17;;;;;;;;;;10379818;28;20499;-78
2021/04/09 10:30:53;;;;;;;10.83;6.23;;;;;;;;;;10374934;28;20796;-77
2021/04/09 10:35:55;;;;;;;11.60;6.10;;;;;;;;;;10387550;28;20674;-77
2021/04/09 10:40:59;;;;;;;11.13;5.27;;;;;;;;;;10381832;28;20326;-78
2021/04/09 10:46:11;;;;;;;9.07;5.43;;;;;;;;;;10388196;28;20561;-77
2021/04/09 10:51:13;;;;;;;15.43;5.30;;;;;;;;;;10377493;28;20682;-77
2021/04/09 10:56:16;;;;;;;8.33;5.17;;;;;;;;;;10382891;28;20483;-76
2021/04/09 11:01:23;;;;;;;14.07;4.93;;;;;;;;;;10379665;28;20247;-79
2021/04/09 11:06:34;;;;;;;11.73;3.43;;;;;;;;;;10383675;28;20304;-77
2021/04/09 11:11:39;;;;;;;7.30;2.60;;;;;;;;;;10382376;28;20796;-77
2021/04/09 11:16:48;;;;;;;6.70;2.87;;;;;;;;;;10379845;28;20274;-78
2021/04/09 11:21:57;;;;;;;6.17;2.70;;;;;;;;;;10372688;28;20244;-76
2021/04/09 11:27:01;;;;;;;7.07;2.80;;;;;;;;;;10374522;28;20602;-78
2021/04/09 11:32:07;;;;;;;8.27;2.97;;;;;;;;;;10386565;28;20592;-77
2021/04/09 11:37:09;;;;;;;8.67;2.37;;;;;;;;;;10382372;28;20672;-76
2021/04/09 11:42:12;;;;;;;10.53;2.60;;;;;;;;;;10381926;28;20244;-78
2021/04/09 11:47:16;;;;;;;9.13;2.80;;;;;;;;;;10386144;28;21252;-76
2021/04/09 11:52:20;;;;;;;6.83;2.43;;;;;;;;;;10383402;28;20307;-76
2021/04/09 11:57:23;;;;;;;8.90;2.50;;;;;;;;;;10381411;28;20567;-76
2021/04/09 12:02:27;;;;;;;11.07;3.20;;;;;;;;;;10379531;28;20246;-77
2021/04/09 12:07:29;;;;;;;6.73;2.37;;;;;;;;;;10379368;28;20307;-77
2021/04/09 12:12:33;;;;;;;9.47;2.80;;;;;;;;;;10376963;28;20216;-76
2021/04/09 12:17:35;;;;;;;6.90;2.50;;;;;;;;;;10382104;28;20216;-77
2021/04/09 12:22:37;;;;;;;7.57;2.50;;;;;;;;;;10378045;28;20841;-77
2021/04/09 12:27:40;;;;;;;7.33;2.67;;;;;;;;;;10373651;28;20216;-76
2021/04/09 12:32:42;;;;;;;9.23;2.50;;;;;;;;;;10372871;28;20208;-77
2021/04/09 12:37:44;;;;;;;6.30;2.60;;;;;;;;;;10377226;28;20224;-77
2021/04/09 12:42:47;;;;;;;5.77;2.90;;;;;;;;;;10373714;28;20355;-77
2021/04/09 12:47:49;;;;;;;6.97;2.50;;;;;;;;;;10376472;28;20218;-76
2021/04/09 12:52:54;;;;;;;5.93;2.73;;;;;;;;;;10383693;28;20224;-75
2021/04/09 12:57:57;;;;;;;8.53;2.73;;;;;;;;;;10380071;28;20251;-75
2021/04/09 13:03:03;;;;;;;6.67;2.60;;;;;;;;;;10376296;28;20266;-75
2021/04/09 13:08:09;;;;;;;5.33;2.47;;;;;;;;;;10385491;28;20248;-76
2021/04/09 13:13:14;;;;;;;8.67;2.60;;;;;;;;;;10387785;28;20230;-75
2021/04/09 13:18:16;;;;;;;5.47;2.10;;;;;;;;;;10388024;28;20236;-76
2021/04/09 13:23:19;;;;;;;5.30;2.13;;;;;;;;;;10390919;28;20252;-76
2021/04/09 13:28:23;;;;;;;4.17;2.10;;;;;;;;;;10387022;28;22334;-75
2021/04/09 13:33:27;;;;;;;3.57;2.07;;;;;;;;;;10383959;28;20649;-77
2021/04/09 13:38:30;;;;;;;4.63;1.80;;;;;;;;;;10388921;28;20314;-76
2021/04/09 13:43:33;;;;;;;4.77;2.20;;;;;;;;;;10382666;28;20212;-75
2021/04/09 13:48:37;;;;;;;6.30;2.50;;;;;;;;;;10388322;28;20244;-76
2021/04/09 13:53:40;;;;;;;6.03;2.10;;;;;;;;;;10381858;28;20736;-76
2021/04/09 13:58:44;;;;;;;5.23;2.17;;;;;;;;;;10386225;28;20618;-76
2021/04/09 14:03:45;;;;;;;5.57;2.00;;;;;;;;;;10385475;28;20943;-77
2021/04/09 14:08:47;;;;;;;5.83;2.00;;;;;;;;;;10391044;28;20227;-76
2021/04/09 14:14:15;;;;;;;3.67;1.80;;;;;;;;;;10382496;28;20221;-76
2021/04/09 14:19:17;;;;;;;4.93;2.00;;;;;;;;;;10385799;28;20662;-78
2021/04/09 14:24:19;;;;;;;5.40;2.07;;;;;;;;;;10371556;28;20576;-77
2021/04/09 14:29:22;;;;;;;5.23;1.90;;;;;;;;;;10376957;28;20588;-77
2021/04/09 14:34:24;;;;;;;7.23;2.17;;;;;;;;;;10382484;28;20216;-78
2021/04/09 14:39:26;;;;;;;4.83;2.20;;;;;;;;;;10371778;28;20351;-77
2021/04/09 14:44:30;;;;;;;4.10;1.90;;;;;;;;;;10371258;28;20215;-76
2021/04/09 14:49:36;;;;;;;5.03;1.90;;;;;;;;;;10385771;28;20303;-76
2021/04/09 14:54:38;;;;;;;5.00;2.00;;;;;;;;;;10383561;28;20219;-76
2021/04/09 14:59:49;;;;;;;4.00;1.53;;;;;;;;;;10379353;28;20331;-78
2021/04/09 15:05:02;;;;;;;3.93;1.70;;;;;;;;;;10381952;28;20240;-76
2021/04/09 15:10:05;;;;;;;2.80;1.80;;;;;;;;;;10379685;28;20212;-76
2021/04/09 15:15:09;;;;;;;3.13;1.60;;;;;;;;;;10372515;28;20311;-78
2021/04/09 15:20:12;;;;;;;3.10;1.73;;;;;;;;;;10373110;28;20815;-76
2021/04/09 15:25:14;;;;;;;3.77;1.80;;;;;;;;;;10372375;28;20538;-75
2021/04/09 15:30:19;;;;;;;3.87;1.90;;;;;;;;;;10378705;28;20703;-77
2021/04/09 15:35:23;;;;;;;3.50;1.80;;;;;;;;;;10381731;28;20686;-75
2021/04/09 15:40:26;;;;;;;4.23;1.40;;;;;;;;;;10377403;28;20649;-76
2021/04/09 15:45:32;;;;;;;3.27;1.70;;;;;;;;;;10378098;28;20209;-77
2021/04/09 15:50:36;;;;;;;4.30;1.70;;;;;;;;;;10369811;28;20742;-76
2021/04/09 15:55:40;;;;;;;2.33;1.57;;;;;;;;;;10373253;28;20248;-78
2021/04/09 16:00:44;;;;;;;4.47;1.40;;;;;;;;;;10371846;28;21004;-76
2021/04/09 16:05:46;;;;;;;3.70;1.77;;;;;;;;;;10374426;28;20244;-76
2021/04/09 16:10:49;;;;;;;5.57;2.20;;;;;;;;;;10380929;28;20212;-77
2021/04/09 16:15:53;;;;;;;2.83;1.67;;;;;;;;;;10381040;28;20212;-76
2021/04/09 16:20:55;;;;;;;1.87;1.40;;;;;;;;;;10372744;28;20289;-77
2021/04/09 16:25:59;;;;;;;3.57;1.93;;;;;;;;;;10379948;28;20311;-77
2021/04/09 16:31:02;;;;;;;4.70;1.90;;;;;;;;;;10369898;28;20988;-77
2021/04/09 16:36:04;;;;;;;6.30;2.50;;;;;;;;;;10384394;28;20671;-76
2021/04/09 16:41:06;;;;;;;7.37;2.60;;;;;;;;;;10378609;28;21912;-77
2021/04/09 16:46:34;;;;;;;9.43;2.90;;;;;;;;;;10378469;28;20220;-77
2021/04/09 16:51:36;;;;;;;5.43;3.07;;;;;;;;;;10370413;28;20674;-76
2021/04/09 16:56:39;;;;;;;8.07;3.60;;;;;;;;;;10372743;28;20708;-77
2021/04/09 17:01:41;;;;;;;10.60;4.00;;;;;;;;;;10374418;28;20279;-77
2021/04/09 17:06:45;;;;;;;13.30;4.47;;;;;;;;;;10370358;28;20221;-77
2021/04/09 17:11:47;;;;;;;10.30;4.07;;;;;;;;;;10373472;28;20221;-76
2021/04/09 17:16:50;;;;;;;10.07;4.10;;;;;;;;;;10372244;28;20679;-78
2021/04/09 17:21:53;;;;;;;11.40;4.63;;;;;;;;;;10375264;28;20350;-77
2021/04/09 17:26:54;;;;;;;13.10;4.37;;;;;;;;;;10361154;28;20315;-76
2021/04/09 17:31:57;;;;;;;9.43;4.87;;;;;;;;;;10365662;28;20224;-77
2021/04/09 17:37:01;;;;;;;9.43;4.93;;;;;;;;;;10368216;28;20270;-76
2021/04/09 17:42:04;;;;;;;11.00;4.87;;;;;;;;;;10375763;28;20240;-75
2021/04/09 17:47:09;;;;;;;12.73;5.13;;;;;;;;;;10377853;28;20289;-76
2021/04/09 17:52:11;;;;;;;10.47;5.00;;;;;;;;;;10377798;28;20465;-77
2021/04/09 17:57:13;;;;;;;11.00;5.10;;;;;;;;;;10371440;28;20754;-76
2021/04/09 18:02:16;;;;;;;11.67;5.23;;;;;;;;;;10380760;28;20239;-77
2021/04/09 18:07:21;;;;;;;12.33;5.17;;;;;;;;;;10382060;28;20717;-76
2021/04/09 18:12:26;;;;;;;11.20;5.47;;;;;;;;;;10371002;28;20573;-76
2021/04/09 18:17:28;;;;;;;11.03;5.30;;;;;;;;;;10376861;28;20231;-76
2021/04/09 18:22:30;;;;;;;11.27;5.00;;;;;;;;;;10375854;28;20239;-76
2021/04/09 18:27:32;;;;;;;14.10;5.43;;;;;;;;;;10380786;28;20227;-76
2021/04/09 18:32:35;;;;;;;10.77;5.47;;;;;;;;;;10375588;28;20568;-76
2021/04/09 18:37:38;;;;;;;15.13;5.93;;;;;;;;;;10383433;28;20693;-76
2021/04/09 18:42:40;;;;;;;14.20;5.47;;;;;;;;;;10374236;28;20285;-76
2021/04/09 18:47:47;;;;;;;16.63;7.67;;;;;;;;;;10379753;28;20732;-76
2021/04/09 18:52:48;;;;;;;15.57;5.30;;;;;;;;;;10375802;28;20656;-76
2021/04/09 18:57:50;;;;;;;16.07;5.53;;;;;;;;;;10377108;28;20248;-76
2021/04/09 19:02:53;;;;;;;15.20;5.43;;;;;;;;;;10368295;28;20965;-76
2021/04/09 19:07:55;;;;;;;18.97;6.10;;;;;;;;;;10378512;28;20730;-76
2021/04/09 19:12:57;;;;;;;13.50;5.63;;;;;;;;;;10375126;28;20216;-76
2021/04/09 19:18:01;;;;;;;9.80;5.30;;;;;;;;;;10373977;28;20232;-76
2021/04/09 19:23:07;;;;;;;13.60;5.80;;;;;;;;;;10380647;28;20263;-77
2021/04/09 19:28:09;;;;;;;12.90;5.47;;;;;;;;;;10370703;28;20790;-75
2021/04/09 19:33:12;;;;;;;10.03;6.00;;;;;;;;;;10376558;28;20216;-76
2021/04/09 19:38:16;;;;;;;14.40;6.03;;;;;;;;;;10372385;28;20223;-76
2021/04/09 19:43:25;;;;;;;11.47;5.73;;;;;;;;;;10379659;28;20243;-75
2021/04/09 19:48:28;;;;;;;12.57;5.97;;;;;;;;;;10367556;28;20227;-76
2021/04/09 19:53:30;;;;;;;13.17;6.53;;;;;;;;;;10376514;28;20696;-75
2021/04/09 19:58:32;;;;;;;13.80;5.13;;;;;;;;;;10372138;28;20212;-75
2021/04/09 20:03:55;;;;;;;13.90;5.50;;;;;;;;;;10380494;28;20262;-75
2021/04/09 20:09:07;;;;;;;12.53;5.60;;;;;;;;;;10368786;28;20216;-77
2021/04/09 20:14:09;;;;;;;10.67;6.03;;;;;;;;;;10380567;28;20208;-76
2021/04/09 20:19:12;;;;;;;14.07;6.47;;;;;;;;;;10382629;28;20246;-76
2021/04/09 20:24:14;;;;;;;11.73;6.30;;;;;;;;;;10380538;28;20301;-76
2021/04/09 20:29:24;;;;;;;11.87;6.47;;;;;;;;;;10381269;28;20304;-76
2021/04/09 20:34:27;;;;;;;12.17;7.30;;;;;;;;;;10383289;28;20266;-76
2021/04/09 20:39:31;;;;;;;14.43;6.57;;;;;;;;;;10383932;28;20240;-76
2021/04/09 20:44:32;;;;;;;15.20;6.70;;;;;;;;;;10382715;28;20646;-76
2021/04/09 20:49:36;;;;;;;8.17;6.13;;;;;;;;;;10389540;28;20212;-76
2021/04/09 20:54:38;;;;;;;14.67;6.77;;;;;;;;;;10385842;28;20219;-76
2021/04/09 20:59:41;;;;;;;10.70;5.33;;;;;;;;;;10387461;28;20240;-75
2021/04/09 21:04:43;;;;;;;13.80;5.20;;;;;;;;;;10392579;28;20536;-75
2021/04/09 21:09:45;;;;;;;12.20;5.60;;;;;;;;;;10378660;28;20218;-74
2021/04/09 21:14:47;;;;;;;13.17;5.57;;;;;;;;;;10383424;28;20231;-76
2021/04/09 21:19:50;;;;;;;12.63;4.97;;;;;;;;;;10377930;28;20232;-75
2021/04/09 21:24:52;;;;;;;11.63;4.83;;;;;;;;;;10386559;28;20455;-75
2021/04/09 21:29:54;;;;;;;10.37;4.73;;;;;;;;;;10375354;28;20224;-76
2021/04/09 21:35:04;;;;;;;9.57;3.73;;;;;;;;;;10371040;28;20215;-76
2021/04/09 21:40:07;;;;;;;11.63;4.00;;;;;;;;;;10376928;28;20246;-76
2021/04/09 21:45:10;;;;;;;11.93;3.50;;;;;;;;;;10381009;28;20219;-75
2021/04/09 21:50:15;;;;;;;8.77;3.23;;;;;;;;;;10387646;28;20656;-76
2021/04/09 21:55:18;;;;;;;10.97;3.20;;;;;;;;;;10381260;28;20214;-75
2021/04/09 22:00:24;;;;;;;9.80;3.50;;;;;;;;;;10385508;28;20381;-76
2021/04/09 22:05:29;;;;;;;9.67;3.60;;;;;;;;;;10380216;28;20239;-75
2021/04/09 22:10:33;;;;;;;9.40;3.30;;;;;;;;;;10383602;28;20243;-75
2021/04/09 22:15:35;;;;;;;8.50;3.00;;;;;;;;;;10376541;28;20566;-76
2021/04/09 22:20:41;;;;;;;7.97;2.80;;;;;;;;;;10383864;28;20232;-75
2021/04/09 22:25:43;;;;;;;6.03;2.87;;;;;;;;;;10384116;28;20211;-76
2021/04/09 22:30:46;;;;;;;9.83;3.07;;;;;;;;;;10381047;28;20224;-75
2021/04/09 22:35:48;;;;;;;6.63;2.80;;;;;;;;;;10378385;28;20300;-76
2021/04/09 22:40:50;;;;;;;8.23;3.10;;;;;;;;;;10379330;28;20291;-76
2021/04/09 22:45:52;;;;;;;5.00;2.50;;;;;;;;;;10380194;28;20615;-76
2021/04/09 22:50:55;;;;;;;7.70;2.80;;;;;;;;;;10377036;28;20299;-76
2021/04/09 22:55:57;;;;;;;6.57;2.80;;;;;;;;;;10382921;28;20727;-75
2021/04/09 23:00:59;;;;;;;8.30;2.70;;;;;;;;;;10377106;28;20257;-75
2021/04/09 23:06:02;;;;;;;7.13;2.90;;;;;;;;;;10383304;28;20239;-75
2021/04/09 23:11:04;;;;;;;11.30;2.60;;;;;;;;;;10375611;28;20235;-75
2021/04/09 23:16:06;;;;;;;8.23;3.10;;;;;;;;;;10377820;28;20768;-75
2021/04/09 23:21:09;;;;;;;7.00;2.50;;;;;;;;;;10369893;28;20325;-75
2021/04/09 23:26:11;;;;;;;6.30;2.83;;;;;;;;;;10379043;28;20589;-75
2021/04/09 23:31:13;;;;;;;6.63;2.40;;;;;;;;;;10371977;28;20216;-75
2021/04/09 23:36:16;;;;;;;6.53;2.60;;;;;;;;;;10387803;28;20315;-76
2021/04/09 23:41:20;;;;;;;7.87;2.97;;;;;;;;;;10375286;28;20238;-75
2021/04/09 23:46:22;;;;;;;5.03;2.50;;;;;;;;;;10378659;28;20219;-75
2021/04/09 23:51:38;;;;;;;8.47;3.07;;;;;;;;;;10374895;28;20283;-75
2021/04/09 23:56:40;;;;;;;9.10;2.70;;;;;;;;;;10360208;28;20561;-76
